N133GL KVNY-KHND
Flight info
| Callsign | N133GL |
|---|---|
| Flight time | N/A |
| Altitude | 29000 |
| Route | DAG DCT DANBY T359 DICSA DCT |
| Aircraft | C525/L-SDFGRWY/SB1 |
Departure
| Time | 2026-04-28 00:54 |
|---|---|
| Airport | Van Nuys Airport (KVNY) |
Arrival
| Time | N/A |
|---|---|
| Airport | Henderson Executive Airport (KHND) |
| Time | Latitude | Longitude | Altitude | Speed | Heading |
|---|---|---|---|---|---|
| 2026-04-28 00:36 | 34.20395 | -118.49136 | 766 ft | 0 kts | 359° |
| 2026-04-28 00:46 | 34.20396 | -118.49136 | 766 ft | 0 kts | 359° |
| 2026-04-28 00:46 | 34.20417 | -118.49126 | 767 ft | 6 kts | 44° |
| 2026-04-28 00:47 | 34.20468 | -118.49107 | 768 ft | 9 kts | 2° |
| 2026-04-28 00:47 | 34.20545 | -118.49112 | 770 ft | 11 kts | 355° |
| 2026-04-28 00:47 | 34.20614 | -118.49120 | 771 ft | 8 kts | 355° |
| 2026-04-28 00:47 | 34.20676 | -118.49125 | 772 ft | 10 kts | 356° |
| 2026-04-28 00:48 | 34.20760 | -118.49131 | 774 ft | 13 kts | 357° |
| 2026-04-28 00:48 | 34.20857 | -118.49140 | 776 ft | 14 kts | 354° |
| 2026-04-28 00:48 | 34.20960 | -118.49152 | 779 ft | 15 kts | 356° |
| 2026-04-28 00:48 | 34.21028 | -118.49158 | 780 ft | 16 kts | 356° |
| 2026-04-28 00:49 | 34.21044 | -118.49159 | 780 ft | 16 kts | 356° |
| 2026-04-28 00:49 | 34.21162 | -118.49170 | 784 ft | 17 kts | 356° |
| 2026-04-28 00:49 | 34.21271 | -118.49180 | 787 ft | 14 kts | 355° |
| 2026-04-28 00:49 | 34.21375 | -118.49191 | 789 ft | 15 kts | 355° |
| 2026-04-28 00:50 | 34.21484 | -118.49202 | 791 ft | 16 kts | 352° |
| 2026-04-28 00:50 | 34.21601 | -118.49221 | 793 ft | 17 kts | 357° |
| 2026-04-28 00:50 | 34.21711 | -118.49226 | 795 ft | 14 kts | 359° |
| 2026-04-28 00:50 | 34.21802 | -118.49232 | 796 ft | 11 kts | 356° |
| 2026-04-28 00:51 | 34.21869 | -118.49219 | 797 ft | 4 kts | 64° |
| 2026-04-28 00:52 | 34.21875 | -118.49203 | 797 ft | 5 kts | 72° |
| 2026-04-28 00:53 | 34.21879 | -118.49130 | 797 ft | 7 kts | 109° |
| 2026-04-28 00:53 | 34.21864 | -118.49121 | 797 ft | 0 kts | 177° |
| 2026-04-28 00:53 | 34.21715 | -118.49107 | 794 ft | 57 kts | 173° |
| 2026-04-28 00:53 | 34.21096 | -118.49049 | 796 ft | 115 kts | 176° |
| 2026-04-28 00:54 | 34.20238 | -118.48994 | 1136 ft | 134 kts | 177° |
| 2026-04-28 00:54 | 34.19227 | -118.48927 | 1569 ft | 155 kts | 173° |
| 2026-04-28 00:54 | 34.18173 | -118.48627 | 2210 ft | 160 kts | 152° |
| 2026-04-28 00:54 | 34.17345 | -118.47644 | 2717 ft | 178 kts | 127° |
| 2026-04-28 00:55 | 34.16637 | -118.46323 | 3199 ft | 196 kts | 122° |
| 2026-04-28 00:55 | 34.15922 | -118.44859 | 3755 ft | 209 kts | 121° |
| 2026-04-28 00:55 | 34.15177 | -118.43316 | 4368 ft | 218 kts | 120° |
| 2026-04-28 00:55 | 34.14405 | -118.41726 | 5019 ft | 224 kts | 120° |
| 2026-04-28 00:56 | 34.13611 | -118.40100 | 5695 ft | 227 kts | 120° |
| 2026-04-28 00:56 | 34.12806 | -118.38470 | 6373 ft | 230 kts | 120° |
| 2026-04-28 00:56 | 34.12229 | -118.36806 | 6929 ft | 207 kts | 101° |
| 2026-04-28 00:56 | 34.12126 | -118.35040 | 6896 ft | 215 kts | 84° |
| 2026-04-28 00:57 | 34.12319 | -118.33234 | 6977 ft | 216 kts | 78° |
| 2026-04-28 00:57 | 34.12439 | -118.31387 | 6885 ft | 229 kts | 92° |
| 2026-04-28 00:57 | 34.11926 | -118.29522 | 6761 ft | 242 kts | 122° |
| 2026-04-28 00:57 | 34.10753 | -118.28130 | 6977 ft | 235 kts | 144° |
| 2026-04-28 00:58 | 34.09476 | -118.26807 | 6880 ft | 242 kts | 133° |
| 2026-04-28 00:58 | 34.08588 | -118.25172 | 7213 ft | 229 kts | 112° |
| 2026-04-28 00:58 | 34.08207 | -118.23315 | 7087 ft | 238 kts | 94° |
| 2026-04-28 00:58 | 34.08245 | -118.21274 | 7000 ft | 242 kts | 75° |
| 2026-04-28 00:59 | 34.08997 | -118.19482 | 6882 ft | 244 kts | 47° |
| 2026-04-28 00:59 | 34.10312 | -118.18201 | 7003 ft | 238 kts | 26° |
| 2026-04-28 00:59 | 34.11784 | -118.17492 | 7370 ft | 224 kts | 13° |
| 2026-04-28 00:59 | 34.13372 | -118.17355 | 6901 ft | 239 kts | 351° |
| 2026-04-28 01:00 | 34.15002 | -118.17385 | 7082 ft | 229 kts | 1° |
| 2026-04-28 01:00 | 34.16535 | -118.17827 | 6949 ft | 232 kts | 328° |
| 2026-04-28 01:00 | 34.17630 | -118.19295 | 6572 ft | 248 kts | 297° |
| 2026-04-28 01:00 | 34.17968 | -118.21372 | 6185 ft | 264 kts | 268° |
| 2026-04-28 01:01 | 34.17345 | -118.23525 | 5640 ft | 284 kts | 239° |
| 2026-04-28 01:01 | 34.16263 | -118.25446 | 5623 ft | 268 kts | 240° |
| 2026-04-28 01:01 | 34.15422 | -118.27417 | 5392 ft | 260 kts | 250° |
| 2026-04-28 01:01 | 34.14980 | -118.29482 | 5057 ft | 256 kts | 265° |
| 2026-04-28 01:02 | 34.14955 | -118.31647 | 4651 ft | 253 kts | 272° |
| 2026-04-28 01:02 | 34.14864 | -118.33572 | 4513 ft | 243 kts | 265° |
| 2026-04-28 01:02 | 34.14670 | -118.35595 | 4134 ft | 240 kts | 268° |
| 2026-04-28 01:02 | 34.14794 | -118.37491 | 3880 ft | 234 kts | 283° |
| 2026-04-28 01:03 | 34.15383 | -118.39178 | 3553 ft | 231 kts | 302° |
| 2026-04-28 01:03 | 34.16478 | -118.40608 | 3199 ft | 230 kts | 320° |
| 2026-04-28 01:03 | 34.17875 | -118.41548 | 2786 ft | 231 kts | 339° |
| 2026-04-28 01:03 | 34.19323 | -118.42128 | 2925 ft | 207 kts | 339° |
| 2026-04-28 01:04 | 34.20645 | -118.42724 | 2772 ft | 201 kts | 335° |
| 2026-04-28 01:04 | 34.21704 | -118.43732 | 2722 ft | 189 kts | 313° |
| 2026-04-28 01:04 | 34.22781 | -118.44637 | 2486 ft | 192 kts | 338° |
| 2026-04-28 01:04 | 34.23965 | -118.44910 | 2740 ft | 156 kts | 356° |
| 2026-04-28 01:05 | 34.24999 | -118.45009 | 2694 ft | 143 kts | 340° |
| 2026-04-28 01:05 | 34.25688 | -118.45840 | 2411 ft | 149 kts | 289° |
| 2026-04-28 01:05 | 34.25678 | -118.46980 | 2287 ft | 127 kts | 257° |
| 2026-04-28 01:05 | 34.25435 | -118.47986 | 1981 ft | 120 kts | 247° |
| 2026-04-28 01:06 | 34.24983 | -118.48776 | 1742 ft | 113 kts | 223° |
| 2026-04-28 01:06 | 34.24326 | -118.49236 | 1499 ft | 108 kts | 193° |
| 2026-04-28 01:06 | 34.23595 | -118.49285 | 1333 ft | 104 kts | 175° |
| 2026-04-28 01:06 | 34.22891 | -118.49223 | 1171 ft | 101 kts | 173° |
| 2026-04-28 01:07 | 34.22197 | -118.49151 | 992 ft | 100 kts | 174° |
| 2026-04-28 01:07 | 34.21500 | -118.49088 | 825 ft | 97 kts | 174° |
| 2026-04-28 01:07 | 34.20880 | -118.49026 | 777 ft | 79 kts | 176° |
| 2026-04-28 01:07 | 34.20598 | -118.49004 | 771 ft | 32 kts | 183° |
| 2026-04-28 01:08 | 34.20409 | -118.49054 | 767 ft | 16 kts | 202° |
| 2026-04-28 01:08 | 34.20298 | -118.49084 | 764 ft | 16 kts | 180° |
| 2026-04-28 01:08 | 34.20188 | -118.49058 | 762 ft | 15 kts | 166° |
| 2026-04-28 01:08 | 34.20079 | -118.49036 | 760 ft | 15 kts | 177° |
| 2026-04-28 01:09 | 34.19969 | -118.49026 | 757 ft | 15 kts | 177° |
| 2026-04-28 01:09 | 34.19970 | -118.49053 | 757 ft | 0 kts | 356° |